Time;durP1;ratioP1;P1;durP2;ratioP2;P2;SDS_P1;SDS_P2;PMS_P1;PMS_P2;Temp;Humidity;BMP_temperature;BMP_pressure;BME280_temperature;BME280_humidity;BME280_pressure;Samples;Min_cycle;Max_cycle;Signal;HPM_P1;HPM_P2
2022/03/24 00:01:43;;;;;;;0.47;0.20;;;;;;;24.34;53.24;102662.13;5072791;28;20024;-69
2022/03/24 00:04:08;;;;;;;0.00;0.00;;;;;;;24.28;53.81;102658.13;5072996;28;20403;-70
2022/03/24 00:06:34;;;;;;;0.38;0.20;;;;;;;24.29;52.91;102653.53;5073163;28;20060;-70
2022/03/24 00:08:59;;;;;;;0.52;0.20;;;;;;;24.30;53.70;102647.88;5071992;28;20111;-69
2022/03/24 00:11:25;;;;;;;0.57;0.20;;;;;;;24.29;54.60;102648.91;5073031;28;20099;-69
2022/03/24 00:13:50;;;;;;;0.57;0.10;;;;;;;24.28;53.37;102647.16;5071993;28;20021;-70
2022/03/24 00:16:17;;;;;;;0.17;0.10;;;;;;;24.24;54.00;102647.66;5073037;28;20120;-69
2022/03/24 00:18:43;;;;;;;1.08;0.13;;;;;;;24.27;55.47;102650.91;5072996;28;20021;-70
2022/03/24 00:21:08;;;;;;;0.90;0.40;;;;;;;24.22;53.56;102652.47;5077843;28;20040;-68
2022/03/24 00:23:34;;;;;;;0.40;0.20;;;;;;;24.24;53.62;102644.91;5093473;28;20039;-70
2022/03/24 00:25:59;;;;;;;0.35;0.10;;;;;;;24.32;54.25;102647.69;5093248;28;20020;-70
2022/03/24 00:28:24;;;;;;;0.43;0.20;;;;;;;24.32;55.33;102644.09;5092996;28;20028;-69
2022/03/24 00:30:50;;;;;;;0.38;0.10;;;;;;;24.27;53.52;102639.94;5093522;28;20024;-70
2022/03/24 00:33:15;;;;;;;0.30;0.20;;;;;;;24.27;54.89;102637.19;5092847;28;20044;-70
2022/03/24 00:35:40;;;;;;;0.30;0.13;;;;;;;24.23;53.82;102633.06;5093345;28;20032;-71
2022/03/24 00:38:06;;;;;;;0.55;0.13;;;;;;;24.22;54.94;102631.34;5092988;28;20016;-69
2022/03/24 00:40:32;;;;;;;0.60;0.15;;;;;;;24.25;54.63;102635.63;5091503;28;20391;-68
2022/03/24 00:42:59;;;;;;;0.47;0.10;;;;;;;24.23;53.96;102632.19;5093044;28;20040;-70
2022/03/24 00:45:25;;;;;;;2.03;0.25;;;;;;;24.24;55.01;102629.28;5092799;28;20024;-71
2022/03/24 00:47:51;;;;;;;0.40;0.10;;;;;;;24.25;54.29;102619.13;5092984;28;20498;-69
2022/03/24 00:50:16;;;;;;;0.38;0.20;;;;;;;24.25;54.01;102617.25;5092702;28;20064;-69
2022/03/24 00:52:42;;;;;;;1.30;0.15;;;;;;;24.25;55.01;102619.13;5090538;28;20035;-70
2022/03/24 00:55:11;;;;;;;0.20;0.10;;;;;;;24.22;54.85;102620.34;5092788;28;20032;-69
2022/03/24 00:57:36;;;;;;;0.15;0.10;;;;;;;24.21;54.62;102613.13;5092601;28;20054;-69
2022/03/24 01:00:02;;;;;;;0.75;0.10;;;;;;;24.17;53.34;102613.59;5091523;28;20063;-69
2022/03/24 01:02:28;;;;;;;0.52;0.10;;;;;;;24.15;54.99;102605.53;5092504;28;20042;-70
2022/03/24 01:04:55;;;;;;;0.30;0.10;;;;;;;24.20;55.03;102605.06;5092752;28;20090;-71
2022/03/24 01:07:20;;;;;;;0.38;0.20;;;;;;;24.19;54.62;102609.69;5091146;28;20074;-69
2022/03/24 01:09:46;;;;;;;0.55;0.20;;;;;;;24.19;54.27;102603.34;5092768;28;20495;-70
2022/03/24 01:12:12;;;;;;;0.00;0.00;;;;;;;24.19;53.96;102606.94;5092571;28;20056;-68
2022/03/24 01:14:38;;;;;;;0.30;0.10;;;;;;;24.16;54.70;102610.00;5095400;28;20107;-70
2022/03/24 01:17:05;;;;;;;0.57;0.20;;;;;;;24.14;54.84;102601.06;5096802;28;20027;-70
2022/03/24 01:19:31;;;;;;;0.30;0.22;;;;;;;24.17;54.33;102603.47;5096563;28;20035;-70
2022/03/24 01:21:56;;;;;;;0.60;0.20;;;;;;;24.10;53.65;102602.44;5081349;28;20051;-69
2022/03/24 01:24:21;;;;;;;1.25;0.20;;;;;;;24.18;54.66;102607.09;5076200;28;20025;-69
2022/03/24 01:26:46;;;;;;;0.82;0.43;;;;;;;24.15;54.35;102599.19;5076428;28;20071;-70
2022/03/24 01:29:12;;;;;;;0.20;0.20;;;;;;;24.17;55.44;102600.72;5076210;28;20024;-69
2022/03/24 01:31:42;;;;;;;1.08;0.25;;;;;;;24.18;54.16;102599.69;5076068;28;20077;-68
2022/03/24 01:34:07;;;;;;;0.98;0.30;;;;;;;24.17;53.82;102600.72;5076201;28;20063;-70
2022/03/24 01:36:33;;;;;;;0.52;0.20;;;;;;;24.14;54.31;102594.72;5076075;28;20071;-70
2022/03/24 01:38:58;;;;;;;1.10;0.22;;;;;;;24.14;54.17;102595.56;5076172;28;20036;-69
2022/03/24 01:41:23;;;;;;;0.47;0.13;;;;;;;24.13;55.83;102587.50;5075940;28;20025;-69
2022/03/24 01:43:49;;;;;;;0.65;0.10;;;;;;;24.10;54.89;102582.34;5076113;28;20035;-70
2022/03/24 01:46:19;;;;;;;0.68;0.10;;;;;;;24.13;54.36;102588.34;5075912;28;20104;-69
2022/03/24 01:48:45;;;;;;;0.22;0.20;;;;;;;24.15;55.09;102589.03;5074627;28;20018;-70
2022/03/24 01:51:10;;;;;;;0.52;0.10;;;;;;;24.13;55.01;102580.13;5084097;28;20497;-69
2022/03/24 01:53:35;;;;;;;1.30;0.40;;;;;;;24.10;54.79;102583.19;5096065;28;20066;-69
2022/03/24 01:56:01;;;;;;;0.20;0.20;;;;;;;24.08;54.18;102587.16;5096155;28;20035;-71
2022/03/24 01:58:27;;;;;;;0.25;0.13;;;;;;;24.14;55.88;102579.09;5095819;28;20024;-68
2022/03/24 02:00:52;;;;;;;0.93;0.10;;;;;;;24.14;54.74;102576.34;5096009;28;20027;-69
2022/03/24 02:03:20;;;;;;;0.70;0.28;;;;;;;24.13;54.12;102582.00;5096143;28;20031;-69
2022/03/24 02:05:45;;;;;;;0.55;0.20;;;;;;;24.11;54.57;102575.81;5096261;28;20069;-69
2022/03/24 02:08:11;;;;;;;0.63;0.20;;;;;;;24.06;52.39;102581.81;5095808;28;20028;-70
2022/03/24 02:10:37;;;;;;;0.35;0.10;;;;;;;24.06;53.03;102569.97;5095732;28;20259;-69
2022/03/24 02:13:04;;;;;;;0.20;0.10;;;;;;;24.10;54.32;102577.72;5095888;28;20020;-70
2022/03/24 02:15:31;;;;;;;0.93;0.20;;;;;;;24.07;53.44;102571.69;5095577;28;20024;-71
2022/03/24 02:17:56;;;;;;;0.20;0.13;;;;;;;24.06;54.33;102570.84;5095650;28;20026;-69
2022/03/24 02:20:23;;;;;;;0.35;0.10;;;;;;;24.07;54.45;102572.56;5091027;28;20111;-70
2022/03/24 02:22:49;;;;;;;0.32;0.20;;;;;;;24.08;54.58;102568.78;5082886;28;20474;-69
2022/03/24 02:25:15;;;;;;;0.95;0.35;;;;;;;24.06;54.71;102568.09;5093073;28;20020;-70
2022/03/24 02:27:40;;;;;;;0.10;0.10;;;;;;;24.06;54.38;102565.34;5095470;28;20423;-71
2022/03/24 02:30:06;;;;;;;0.30;0.00;;;;;;;;;;5095536;28;20391;-69
2022/03/24 02:32:31;;;;;;;0.40;0.20;;;;;;;24.06;54.55;102557.09;5095354;28;20044;-70
2022/03/24 02:34:57;;;;;;;0.30;0.10;;;;;;;24.06;54.14;102551.59;5095434;28;20032;-70
2022/03/24 02:37:25;;;;;;;0.38;0.20;;;;;;;24.00;54.36;102549.50;5095372;28;20049;-69
2022/03/24 02:39:52;;;;;;;1.13;0.20;;;;;;;24.05;54.61;102551.78;5095378;28;20039;-70
2022/03/24 02:42:20;;;;;;;0.43;0.20;;;;;;;24.09;54.85;102547.66;5095054;28;20031;-69
2022/03/24 02:44:48;;;;;;;0.77;0.30;;;;;;;24.06;54.61;102542.50;5095268;28;20052;-69
2022/03/24 02:47:14;;;;;;;0.10;0.10;;;;;;;24.07;54.62;102523.09;5094945;28;20035;-70
2022/03/24 02:49:43;;;;;;;0.32;0.30;;;;;;;24.06;54.34;102543.38;5093330;28;20028;-69
2022/03/24 02:52:09;;;;;;;1.05;0.10;;;;;;;24.06;54.39;102531.50;5093640;28;20020;-69
2022/03/24 02:54:35;;;;;;;0.40;0.30;;;;;;;24.07;55.21;102534.09;5094891;28;20031;-70
2022/03/24 02:57:00;;;;;;;0.55;0.08;;;;;;;24.09;55.35;102536.66;5094965;28;20023;-70
2022/03/24 02:59:26;;;;;;;0.13;0.13;;;;;;;24.02;53.42;102531.00;5093404;28;20554;-70
2022/03/24 03:02:05;;;;;;;0.85;0.20;;;;;;;24.04;55.51;102528.06;5094915;28;20463;-69
2022/03/24 03:04:34;;;;;;;1.02;0.20;;;;;;;24.03;54.68;102532.72;5093289;28;20494;-70
2022/03/24 03:07:02;;;;;;;0.10;0.10;;;;;;;24.01;54.15;102516.38;5094856;28;20044;-71
2022/03/24 03:09:28;;;;;;;0.30;0.15;;;;;;;24.03;54.24;102520.88;5093209;28;20467;-70
2022/03/24 03:11:53;;;;;;;1.33;0.28;;;;;;;24.06;54.45;102520.53;5094733;28;20034;-70
2022/03/24 03:14:19;;;;;;;1.42;0.22;;;;;;;24.02;55.06;102517.25;5094667;28;20028;-69
2022/03/24 03:16:45;;;;;;;0.52;0.10;;;;;;;24.02;54.31;102520.00;5094665;28;20024;-70
2022/03/24 03:19:13;;;;;;;0.20;0.10;;;;;;;24.03;54.12;102527.22;5080405;28;20392;-70
2022/03/24 03:21:41;;;;;;;0.20;0.10;;;;;;;24.00;54.87;102524.78;5074122;28;20035;-70
2022/03/24 03:24:08;;;;;;;0.08;0.00;;;;;;;24.03;54.20;102524.47;5074211;28;20030;-70
2022/03/24 03:26:34;;;;;;;0.25;0.20;;;;;;;24.00;53.90;102522.03;5074061;28;20107;-70
2022/03/24 03:29:00;;;;;;;0.88;0.10;;;;;;;24.00;54.63;102527.53;5074152;28;20024;-69
2022/03/24 03:31:26;;;;;;;0.28;0.10;;;;;;;23.96;54.10;102513.28;5073634;28;20051;-70
2022/03/24 03:33:51;;;;;;;0.50;0.10;;;;;;;24.02;54.19;102514.50;5074075;28;20048;-72
2022/03/24 03:36:21;;;;;;;0.10;0.00;;;;;;;23.99;55.38;102509.34;5073612;28;20039;-69
2022/03/24 03:38:46;;;;;;;0.77;0.28;;;;;;;23.97;54.36;102516.88;5073905;28;20032;-70
2022/03/24 03:41:16;;;;;;;0.20;0.20;;;;;;;23.94;53.99;102506.25;5073695;28;20361;-71
2022/03/24 03:43:42;;;;;;;0.60;0.10;;;;;;;23.95;54.48;102507.97;5073781;28;20020;-70
2022/03/24 03:46:10;;;;;;;0.20;0.10;;;;;;;23.99;54.27;102509.34;5073995;28;20349;-70
2022/03/24 03:48:37;;;;;;;1.23;0.40;;;;;;;23.99;54.64;102503.84;5083796;28;20031;-69
2022/03/24 03:51:03;;;;;;;0.32;0.32;;;;;;;24.01;55.35;102507.28;5078821;28;20060;-70
2022/03/24 03:53:29;;;;;;;0.68;0.25;;;;;;;24.00;54.97;102511.03;5073308;28;20479;-71
2022/03/24 03:55:54;;;;;;;0.10;0.10;;;;;;;23.99;55.40;102509.34;5073599;28;20023;-69
2022/03/24 03:58:19;;;;;;;0.28;0.03;;;;;;;23.97;54.39;102511.38;5073194;28;20093;-70
2022/03/24 04:00:53;;;;;;;0.93;0.08;;;;;;;23.99;54.32;102509.34;5073525;28;20460;-68
2022/03/24 04:03:20;;;;;;;0.10;0.10;;;;;;;23.95;54.40;102513.44;5073206;28;20468;-70
2022/03/24 04:05:45;;;;;;;0.10;0.10;;;;;;;23.94;53.68;102504.34;5073369;28;20094;-70
2022/03/24 04:08:11;;;;;;;0.30;0.10;;;;;;;23.98;53.65;102513.09;5073226;28;20455;-69
2022/03/24 04:10:38;;;;;;;0.32;0.10;;;;;;;23.98;54.15;102496.63;5073527;28;20021;-70
2022/03/24 04:13:05;;;;;;;1.50;0.10;;;;;;;23.94;54.46;102479.63;5073290;28;20020;-71
2022/03/24 04:15:31;;;;;;;0.40;0.10;;;;;;;23.91;54.04;102501.09;5073341;28;20025;-69
2022/03/24 04:17:57;;;;;;;0.10;0.10;;;;;;;23.95;54.62;102485.97;5078224;28;20043;-70
2022/03/24 04:20:22;;;;;;;0.10;0.10;;;;;;;23.94;55.77;102484.25;5093192;28;20029;-71
2022/03/24 04:22:49;;;;;;;0.82;0.20;;;;;;;23.95;55.18;102486.84;5093383;28;20032;-70
2022/03/24 04:25:15;;;;;;;0.10;0.00;;;;;;;23.96;54.50;102479.47;5092183;28;20020;-70
2022/03/24 04:27:40;;;;;;;1.23;0.13;;;;;;;23.96;55.48;102476.72;5093246;28;20527;-69
2022/03/24 04:30:06;;;;;;;0.20;0.03;;;;;;;23.97;54.63;102470.19;5093203;28;20019;-70
2022/03/24 04:32:31;;;;;;;0.75;0.22;;;;;;;23.94;54.14;102476.88;5092850;28;20032;-71
2022/03/24 04:34:57;;;;;;;0.43;0.10;;;;;;;23.97;53.61;102473.78;5093162;28;20538;-69
2022/03/24 04:37:22;;;;;;;0.25;0.10;;;;;;;23.95;54.55;102464.88;5092833;28;20096;-70
2022/03/24 04:39:47;;;;;;;0.68;0.20;;;;;;;23.95;55.78;102453.00;5093112;28;20042;-70
2022/03/24 04:42:12;;;;;;;1.27;0.10;;;;;;;23.96;54.17;102460.22;5092959;28;20024;-69
2022/03/24 04:44:38;;;;;;;0.20;0.20;;;;;;;23.93;54.82;102455.94;5092871;28;20451;-70
2022/03/24 04:47:03;;;;;;;0.57;0.10;;;;;;;23.94;54.66;102456.78;5092992;28;20028;-69
2022/03/24 04:49:28;;;;;;;0.38;0.10;;;;;;;23.91;54.47;102451.66;5074017;28;20024;-70
2022/03/24 04:51:55;;;;;;;0.40;0.10;;;;;;;23.95;54.55;102447.53;5072728;28;20021;-70
2022/03/24 04:54:20;;;;;;;0.20;0.15;;;;;;;23.96;54.26;102449.25;5072449;28;20028;-69
2022/03/24 04:56:45;;;;;;;0.10;0.05;;;;;;;23.96;55.48;102449.25;5072676;28;20032;-69
2022/03/24 04:59:11;;;;;;;0.17;0.10;;;;;;;23.96;54.78;102454.72;5072448;28;20020;-69
2022/03/24 05:01:36;;;;;;;1.45;0.10;;;;;;;23.97;55.20;102446.31;5072755;28;20035;-70
2022/03/24 05:04:01;;;;;;;0.22;0.00;;;;;;;24.08;54.14;102438.78;5072676;28;20024;-72
2022/03/24 05:06:27;;;;;;;0.52;0.25;;;;;;;24.17;53.70;102441.34;5072243;28;20027;-69
2022/03/24 05:08:52;;;;;;;0.20;0.00;;;;;;;24.23;53.80;102432.44;5071296;28;20103;-70
2022/03/24 05:11:17;;;;;;;0.52;0.20;;;;;;;24.23;54.43;102440.69;5072282;28;20032;-71
2022/03/24 05:13:45;;;;;;;0.35;0.10;;;;;;;24.25;54.57;102430.38;5072482;28;20025;-71
2022/03/24 05:16:10;;;;;;;0.93;0.10;;;;;;;24.29;53.67;102429.00;5072321;28;20021;-71
2022/03/24 05:18:36;;;;;;;0.68;0.30;;;;;;;24.27;54.10;102422.81;5084568;28;20074;-70
2022/03/24 05:21:01;;;;;;;0.25;0.10;;;;;;;24.28;53.26;102427.25;5092601;28;20046;-71
2022/03/24 05:23:27;;;;;;;0.20;0.20;;;;;;;24.28;53.44;102430.00;5092330;28;20020;-71
2022/03/24 05:25:53;;;;;;;0.00;0.00;;;;;;;24.34;53.43;102430.38;5092881;28;20020;-71
2022/03/24 05:28:18;;;;;;;0.75;0.20;;;;;;;24.36;53.06;102431.94;5092286;28;20020;-68
2022/03/24 05:30:43;;;;;;;0.52;0.10;;;;;;;24.34;53.08;102435.88;5092585;28;20024;-69
2022/03/24 05:33:10;;;;;;;0.05;0.03;;;;;;;24.42;53.45;102436.75;5092613;28;20123;-71
2022/03/24 05:35:35;;;;;;;0.03;0.00;;;;;;;24.35;53.15;102443.94;5092390;28;20028;-72
2022/03/24 05:38:04;;;;;;;0.60;0.10;;;;;;;24.39;51.51;102438.97;5092383;28;20153;-69
2022/03/24 05:40:30;;;;;;;0.20;0.10;;;;;;;24.34;54.25;102430.38;5092197;28;20086;-71
2022/03/24 05:42:55;;;;;;;1.25;0.15;;;;;;;24.38;52.72;102438.13;5092450;28;20028;-71
2022/03/24 05:45:21;;;;;;;0.55;0.17;;;;;;;24.36;52.42;102436.59;5092115;28;20020;-70
2022/03/24 05:47:46;;;;;;;0.25;0.10;;;;;;;24.40;52.97;102435.19;5086466;28;20025;-71
2022/03/24 05:50:12;;;;;;;0.32;0.20;;;;;;;24.41;51.74;102428.66;5072020;28;20027;-69
2022/03/24 05:52:37;;;;;;;0.00;0.00;;;;;;;24.44;52.82;102428.31;5071998;28;20031;-70
2022/03/24 05:55:03;;;;;;;0.10;0.00;;;;;;;24.41;52.83;102428.66;5072170;28;20021;-72
2022/03/24 05:57:29;;;;;;;0.13;0.10;;;;;;;24.39;53.65;102422.50;5071752;28;20031;-69
2022/03/24 05:59:54;;;;;;;1.00;0.10;;;;;;;24.38;52.40;102420.78;5073462;28;20029;-71
2022/03/24 06:02:20;;;;;;;0.28;0.15;;;;;;;24.34;52.13;102424.88;5075549;28;20020;-70
2022/03/24 06:04:47;;;;;;;0.30;0.10;;;;;;;24.34;50.17;102425.72;5086091;28;20067;-71
2022/03/24 06:07:14;;;;;;;0.35;0.20;;;;;;;24.36;52.13;102422.84;5095810;28;20046;-71
2022/03/24 06:09:40;;;;;;;0.43;0.10;;;;;;;24.33;50.88;102428.66;5095863;28;20098;-70
2022/03/24 06:12:10;;;;;;;0.70;0.08;;;;;;;24.36;50.52;102411.84;5094631;28;20452;-70
2022/03/24 06:14:37;;;;;;;0.22;0.00;;;;;;;24.47;52.26;102419.72;5095774;28;20099;-73
2022/03/24 06:17:03;;;;;;;0.30;0.20;;;;;;;24.47;52.45;102414.22;5094421;28;20034;-70
2022/03/24 06:19:28;;;;;;;0.03;0.00;;;;;;;24.44;52.77;102412.69;5075722;28;20175;-71
2022/03/24 06:21:54;;;;;;;0.10;0.10;;;;;;;24.40;50.96;102418.72;5075486;28;20032;-71
2022/03/24 06:24:19;;;;;;;0.00;0.00;;;;;;;24.40;52.04;102415.97;5075152;28;20028;-70
2022/03/24 06:26:45;;;;;;;0.22;0.10;;;;;;;24.36;51.02;102414.59;5075399;28;20024;-72
2022/03/24 06:29:13;;;;;;;0.22;0.00;;;;;;;24.43;51.56;102412.84;5075218;28;20028;-69
2022/03/24 06:31:41;;;;;;;0.93;0.25;;;;;;;24.35;51.82;102410.09;5074981;28;20040;-70
2022/03/24 06:34:08;;;;;;;0.28;0.05;;;;;;;24.47;52.17;102414.22;5075459;28;20021;-72
2022/03/24 06:36:33;;;;;;;0.77;0.10;;;;;;;24.42;51.54;102416.63;5073743;28;20024;-70
2022/03/24 06:38:58;;;;;;;0.32;0.10;;;;;;;24.42;51.82;102413.88;5075087;28;20013;-71
2022/03/24 06:41:24;;;;;;;0.03;0.00;;;;;;;24.44;52.96;102422.81;5074817;28;20157;-71
2022/03/24 06:43:49;;;;;;;1.00;0.10;;;;;;;24.42;51.90;102409.25;5075085;28;20069;-71
2022/03/24 06:46:15;;;;;;;1.00;0.10;;;;;;;24.44;51.30;102420.06;5074866;28;20025;-72
2022/03/24 06:48:41;;;;;;;0.75;0.22;;;;;;;24.38;50.28;102415.28;5086232;28;20106;-69
2022/03/24 06:51:06;;;;;;;0.00;0.00;;;;;;;24.47;51.17;102419.72;5095099;28;20028;-70
2022/03/24 06:53:32;;;;;;;0.50;0.10;;;;;;;24.42;50.76;102416.63;5094883;28;20028;-71
2022/03/24 06:55:57;;;;;;;0.47;0.28;;;;;;;24.47;52.07;102419.72;5095055;28;20253;-70
2022/03/24 06:58:23;;;;;;;0.95;0.10;;;;;;;24.39;49.52;102419.75;5094634;28;20055;-70
2022/03/24 07:00:48;;;;;;;0.10;0.00;;;;;;;24.49;51.10;102424.00;5095054;28;20035;-71
2022/03/24 07:03:14;;;;;;;0.60;0.10;;;;;;;24.44;52.57;102417.31;5094789;28;20035;-71
2022/03/24 07:05:39;;;;;;;0.15;0.00;;;;;;;24.49;51.25;102418.50;5094785;28;20150;-71
2022/03/24 07:08:05;;;;;;;0.10;0.10;;;;;;;24.38;49.29;102421.63;5094710;28;20020;-69
2022/03/24 07:10:31;;;;;;;0.25;0.00;;;;;;;24.47;51.10;102416.97;5094410;28;20489;-71
2022/03/24 07:12:56;;;;;;;0.75;0.30;;;;;;;24.46;51.77;102423.50;5094041;28;20028;-73
2022/03/24 07:15:23;;;;;;;0.35;0.00;;;;;;;24.46;51.92;102413.34;5094424;28;20107;-70
2022/03/24 07:17:48;;;;;;;0.13;0.10;;;;;;;24.40;50.10;102408.56;5088993;28;20024;-69
2022/03/24 07:20:14;;;;;;;0.50;0.20;;;;;;;24.49;51.07;102412.16;5074167;28;20033;-71
2022/03/24 07:22:39;;;;;;;0.93;0.10;;;;;;;24.43;51.19;102402.72;5074172;28;20043;-71
2022/03/24 07:25:06;;;;;;;0.40;0.10;;;;;;;24.41;52.57;102410.28;5074281;28;20024;-71
2022/03/24 07:27:32;;;;;;;0.20;0.00;;;;;;;24.45;50.22;102410.78;5073917;28;20047;-68
2022/03/24 07:29:57;;;;;;;0.00;0.00;;;;;;;24.71;53.01;102402.31;5073967;28;20037;-69
2022/03/24 07:32:23;;;;;;;0.20;0.10;;;;;;;24.82;55.52;102408.28;5073632;28;20043;-72
2022/03/24 07:34:49;;;;;;;0.65;0.10;;;;;;;24.83;56.46;102401.75;5091391;28;20546;-69
2022/03/24 07:37:14;;;;;;;1.30;0.40;;;;;;;24.88;57.43;102407.59;5091134;28;20377;-70
2022/03/24 07:39:41;;;;;;;0.75;0.20;;;;;;;24.90;57.57;102411.00;5060120;28;20040;-71
2022/03/24 07:42:07;;;;;;;1.00;0.20;;;;;;;24.94;58.35;102407.91;5069751;28;20041;-68
2022/03/24 07:44:32;;;;;;;0.65;0.25;;;;;;;24.97;58.99;102408.41;5071880;28;20040;-67
2022/03/24 07:46:58;;;;;;;1.98;0.30;;;;;;;24.95;60.07;102393.97;5059934;28;20249;-64
2022/03/24 07:49:23;;;;;;;0.43;0.20;;;;;;;24.95;60.15;102395.88;5071735;28;20028;-66
2022/03/24 07:51:49;;;;;;;1.52;0.20;;;;;;;24.99;60.60;102380.72;5093594;28;20020;-66
2022/03/24 07:54:14;;;;;;;1.27;0.30;;;;;;;24.99;60.07;102380.72;5093767;28;20047;-64
2022/03/24 07:56:40;;;;;;;0.43;0.20;;;;;;;25.00;60.72;102374.19;5093793;28;20017;-66
2022/03/24 07:59:06;;;;;;;0.60;0.30;;;;;;;25.03;61.51;102377.47;5093788;28;20020;-64
2022/03/24 08:01:34;;;;;;;0.38;0.10;;;;;;;25.04;61.00;102378.34;5093831;28;20024;-65
2022/03/24 08:04:04;;;;;;;0.85;0.47;;;;;;;25.06;62.07;102377.09;5076515;28;20048;-66
2022/03/24 08:06:31;;;;;;;0.85;0.20;;;;;;;25.05;61.40;102380.03;5066618;28;20029;-64
2022/03/24 08:08:57;;;;;;;1.50;0.45;;;;;;;25.08;61.92;102376.94;5070783;28;20020;-65
2022/03/24 08:11:22;;;;;;;1.02;0.40;;;;;;;25.07;62.00;102369.72;5066385;28;20032;-65
2022/03/24 08:13:55;;;;;;;0.60;0.17;;;;;;;25.08;61.81;102368.66;5072306;28;20032;-64
2022/03/24 08:16:21;;;;;;;2.72;0.60;;;;;;;25.14;62.11;102367.94;5071380;28;20043;-66
2022/03/24 08:18:47;;;;;;;1.45;0.30;;;;;;;25.13;62.49;102374.47;5079152;28;20073;-65
2022/03/24 08:21:12;;;;;;;1.27;0.25;;;;;;;25.14;61.90;102373.44;5070567;28;20020;-67
2022/03/24 08:23:38;;;;;;;0.95;0.22;;;;;;;25.14;62.61;102367.94;5071008;28;20036;-67
2022/03/24 08:26:03;;;;;;;2.35;0.28;;;;;;;25.12;62.19;102372.78;5066152;28;20464;-66
2022/03/24 08:28:28;;;;;;;0.45;0.20;;;;;;;25.16;62.36;102382.38;5051970;28;20029;-67
2022/03/24 08:30:53;;;;;;;1.05;0.30;;;;;;;25.16;62.60;102376.88;5060946;28;20016;-66
2022/03/24 08:33:19;;;;;;;0.90;0.30;;;;;;;25.16;62.32;102372.22;5050590;28;20040;-66
2022/03/24 08:35:44;;;;;;;1.05;0.10;;;;;;;25.19;62.94;102365.50;5053144;28;20032;-67
2022/03/24 08:38:10;;;;;;;0.50;0.20;;;;;;;25.19;62.95;102369.13;5063128;28;20032;-65
2022/03/24 08:40:36;;;;;;;0.20;0.20;;;;;;;25.21;62.56;102368.94;5054933;28;20090;-67
2022/03/24 08:43:03;;;;;;;1.02;0.17;;;;;;;25.18;62.77;102366.53;5071431;28;20101;-67
2022/03/24 08:45:28;;;;;;;0.30;0.30;;;;;;;25.21;63.07;102368.94;5071338;28;20390;-65
2022/03/24 08:47:54;;;;;;;0.88;0.20;;;;;;;25.21;62.55;102368.94;5068871;28;20107;-67
2022/03/24 08:50:19;;;;;;;1.02;0.20;;;;;;;25.21;62.52;102374.47;5062847;28;20479;-67
2022/03/24 08:52:45;;;;;;;2.63;0.43;;;;;;;25.23;63.63;102369.63;5067059;28;20028;-67
2022/03/24 08:55:13;;;;;;;1.63;0.22;;;;;;;25.21;62.93;102374.47;5071119;28;20025;-67
2022/03/24 08:57:39;;;;;;;2.53;0.30;;;;;;;25.23;64.01;102374.28;5071228;28;20075;-67
2022/03/24 09:00:12;;;;;;;1.65;0.30;;;;;;;25.24;63.09;102368.59;5072336;28;20032;-68
2022/03/24 09:02:49;;;;;;;1.00;0.28;;;;;;;25.19;60.73;102376.50;5070618;28;20032;-67
2022/03/24 09:05:18;;;;;;;1.50;0.55;;;;;;;25.23;62.25;102388.91;5064544;28;20029;-67
2022/03/24 09:07:45;;;;;;;2.40;0.43;;;;;;;25.23;62.56;102375.13;5070775;28;20361;-67
2022/03/24 09:10:12;;;;;;;2.72;0.80;;;;;;;25.24;62.74;102382.34;5057478;28;20032;-67
2022/03/24 09:12:39;;;;;;;1.60;0.40;;;;;;;25.26;63.14;102371.16;5057838;28;20016;-67
2022/03/24 09:15:07;;;;;;;1.38;0.43;;;;;;;25.27;63.50;102370.97;5061607;28;20027;-67
2022/03/24 09:17:36;;;;;;;2.33;0.77;;;;;;;25.25;63.31;102372.19;5072086;28;20069;-67
2022/03/24 09:20:09;;;;;;;3.20;0.68;;;;;;;25.28;62.77;102364.44;5071853;28;20025;-67
2022/03/24 09:22:43;;;;;;;4.43;0.60;;;;;;;25.30;63.43;102359.59;5071848;28;20464;-67
2022/03/24 09:25:09;;;;;;;1.55;0.55;;;;;;;25.33;63.36;102363.88;5069142;28;20118;-67
2022/03/24 09:27:35;;;;;;;2.15;0.50;;;;;;;25.29;63.93;102362.53;5071840;28;20051;-67
2022/03/24 09:30:03;;;;;;;3.25;0.70;;;;;;;25.34;63.62;102369.19;5072022;28;20028;-67
2022/03/24 09:32:28;;;;;;;1.05;0.30;;;;;;;24.96;64.72;102364.56;5067307;28;20045;-67
2022/03/24 09:34:54;;;;;;;2.03;0.52;;;;;;;24.42;63.35;102361.66;5063224;28;20028;-67
2022/03/24 09:37:22;;;;;;;4.05;0.80;;;;;;;24.09;61.34;102353.44;5063489;28;20104;-67
2022/03/24 09:39:48;;;;;;;3.75;1.02;;;;;;;23.91;59.99;102355.50;5072260;28;20051;-67
2022/03/24 09:42:13;;;;;;;4.53;0.52;;;;;;;23.69;59.25;102365.28;5069127;28;20025;-67
2022/03/24 09:44:42;;;;;;;2.58;0.65;;;;;;;23.51;57.52;102362.63;5058824;28;20024;-66
2022/03/24 09:47:11;;;;;;;2.15;0.57;;;;;;;23.38;56.09;102356.81;5059092;28;20112;-67
2022/03/24 09:49:37;;;;;;;2.58;0.43;;;;;;;23.40;55.48;102360.25;5075203;28;20052;-66
2022/03/24 09:52:03;;;;;;;1.20;0.40;;;;;;;23.34;53.82;102367.25;5069902;28;20367;-67
2022/03/24 09:54:28;;;;;;;2.30;0.60;;;;;;;23.14;54.34;102359.47;5071081;28;20485;-66
2022/03/24 09:56:54;;;;;;;2.15;0.50;;;;;;;23.19;53.68;102354.38;5074841;28;20079;-67
2022/03/24 09:59:20;;;;;;;4.75;0.70;;;;;;;23.13;53.39;102363.25;5071470;28;20013;-67
2022/03/24 10:01:45;;;;;;;2.50;0.45;;;;;;;23.04;53.60;102357.75;5072639;28;20020;-67
2022/03/24 10:04:14;;;;;;;0.88;0.40;;;;;;;23.04;52.70;102360.50;5070220;28;20029;-67
2022/03/24 10:06:55;;;;;;;2.90;0.60;;;;;;;23.06;54.10;102360.31;5069844;28;20123;-67
2022/03/24 10:09:41;;;;;;;2.53;0.40;;;;;;;23.01;53.67;102360.81;5064588;28;20508;-67
2022/03/24 10:12:08;;;;;;;1.92;0.60;;;;;;;23.01;53.02;102363.56;5074506;28;20078;-67
2022/03/24 10:14:34;;;;;;;3.20;0.65;;;;;;;23.04;54.13;102355.00;5063373;28;20025;-68
2022/03/24 10:17:10;;;;;;;3.95;0.52;;;;;;;23.00;54.29;102356.34;5073026;28;20039;-67
2022/03/24 10:19:36;;;;;;;2.30;0.50;;;;;;;23.08;54.02;102361.88;5073898;28;20131;-67
2022/03/24 10:22:10;;;;;;;2.38;0.63;;;;;;;23.09;54.71;102351.75;5066641;28;20028;-68
2022/03/24 10:24:43;;;;;;;1.80;0.40;;;;;;;23.19;54.64;102351.63;5058168;28;20116;-66
2022/03/24 10:27:11;;;;;;;1.63;0.68;;;;;;;23.18;54.15;102344.38;5065657;28;20040;-66
2022/03/24 10:29:37;;;;;;;1.67;0.55;;;;;;;23.21;54.82;102338.59;5074326;28;20023;-67
2022/03/24 10:32:05;;;;;;;2.72;0.60;;;;;;;23.22;54.67;102346.66;5065795;28;20037;-66
2022/03/24 10:34:34;;;;;;;3.47;0.75;;;;;;;23.16;55.68;102340.97;5069616;28;20043;-66
2022/03/24 10:37:06;;;;;;;3.50;0.52;;;;;;;23.18;54.65;102333.41;5056872;28;20028;-65
2022/03/24 10:39:35;;;;;;;1.70;0.40;;;;;;;23.21;55.49;102333.09;5065237;28;20107;-66
2022/03/24 10:42:20;;;;;;;2.53;0.25;;;;;;;23.17;55.27;102334.44;5069375;28;20491;-66
2022/03/24 10:45:03;;;;;;;;;;;;;;;23.14;55.41;102343.00;5069090;28;20032;-66
2022/03/24 10:47:46;;;;;;;3.85;0.95;;;;;;;23.10;55.52;102329.63;5057895;28;19917;-66
2022/03/24 10:50:25;;;;;;;3.20;0.75;;;;;;;23.12;55.06;102332.22;5060272;28;20052;-67
2022/03/24 10:52:53;;;;;;;2.42;0.52;;;;;;;23.10;55.95;102324.16;5061255;28;20053;-67
2022/03/24 10:55:34;;;;;;;3.63;0.80;;;;;;;23.11;55.27;102320.38;5068739;28;20032;-66
2022/03/24 10:58:00;;;;;;;2.72;0.40;;;;;;;23.11;55.40;102319.53;5066660;28;20522;-66
2022/03/24 11:00:26;;;;;;;2.15;0.40;;;;;;;23.05;55.31;102323.81;5062242;28;20041;-66
2022/03/24 11:02:51;;;;;;;2.63;0.47;;;;;;;23.06;56.05;102325.50;5070641;28;20021;-66
2022/03/24 11:05:17;;;;;;;2.85;0.55;;;;;;;23.08;55.00;102317.97;5060936;28;20368;-66
2022/03/24 11:07:50;;;;;;;2.42;0.93;;;;;;;23.04;55.52;102319.34;5064297;28;20020;-66
2022/03/24 11:10:16;;;;;;;3.30;0.80;;;;;;;23.10;55.94;102321.41;5068287;28;20051;-66
2022/03/24 11:12:43;;;;;;;2.83;0.80;;;;;;;23.09;55.06;102324.31;5076828;28;20383;-68
2022/03/24 11:15:10;;;;;;;3.70;0.50;;;;;;;23.04;55.73;102324.84;5078680;28;20435;-65
2022/03/24 11:17:39;;;;;;;2.05;0.30;;;;;;;23.04;55.61;102324.84;5083666;28;20024;-65
2022/03/24 11:20:35;;;;;;;3.33;0.50;;;;;;;23.08;54.98;102326.22;5094608;28;20383;-65
2022/03/24 11:23:11;;;;;;;2.10;0.50;;;;;;;23.05;55.20;102328.44;5053891;28;20029;-65
2022/03/24 11:25:38;;;;;;;1.88;0.50;;;;;;;23.03;54.97;102325.84;5053671;28;20472;-65